CCM775 LFPO-LFKJ
Flight info
| Callsign | CCM775 |
|---|---|
| Flight time | 1h 25m |
| Altitude | 37000 |
| Route | LATRA DCT LAMUT DCT UTUVA DCT TITVA DCT NOQAS DCT OTROT DCT RETNO DCT KOLON DCT OMARD M623 VAREK |
| Aircraft | A320/M-SDE3FGHIRWY/LB1 |
Departure
| Time | 2026-05-08 18:29 |
|---|---|
| Airport | Paris-Orly Airport (LFPO) |
Arrival
| Time | 2026-05-08 19:54 |
|---|---|
| Airport | Ajaccio Napoléon Bonaparte airport (LFKJ) |
| Time | Latitude | Longitude | Altitude | Speed | Heading |
|---|---|---|---|---|---|
| 2026-05-08 17:44 | 48.72664 | 2.35775 | 292 ft | 0 kts | 65° |
| 2026-05-08 18:20 | 48.72663 | 2.35773 | 296 ft | 2 kts | 65° |
| 2026-05-08 18:20 | 48.72652 | 2.35737 | 296 ft | 4 kts | 65° |
| 2026-05-08 18:20 | 48.72643 | 2.35707 | 291 ft | 3 kts | 66° |
| 2026-05-08 18:21 | 48.72638 | 2.35671 | 293 ft | 4 kts | 109° |
| 2026-05-08 18:21 | 48.72652 | 2.35644 | 291 ft | 3 kts | 164° |
| 2026-05-08 18:21 | 48.72670 | 2.35637 | 292 ft | 0 kts | 165° |
| 2026-05-08 18:24 | 48.72658 | 2.35642 | 293 ft | 6 kts | 165° |
| 2026-05-08 18:24 | 48.72625 | 2.35655 | 296 ft | 4 kts | 165° |
| 2026-05-08 18:25 | 48.72599 | 2.35666 | 291 ft | 3 kts | 165° |
| 2026-05-08 18:25 | 48.72579 | 2.35674 | 293 ft | 2 kts | 165° |
| 2026-05-08 18:25 | 48.72561 | 2.35681 | 291 ft | 5 kts | 165° |
| 2026-05-08 18:25 | 48.72520 | 2.35699 | 293 ft | 6 kts | 164° |
| 2026-05-08 18:26 | 48.72468 | 2.35682 | 294 ft | 12 kts | 227° |
| 2026-05-08 18:26 | 48.72412 | 2.35616 | 295 ft | 10 kts | 172° |
| 2026-05-08 18:26 | 48.72350 | 2.35641 | 293 ft | 9 kts | 175° |
| 2026-05-08 18:26 | 48.72288 | 2.35615 | 295 ft | 10 kts | 199° |
| 2026-05-08 18:27 | 48.72227 | 2.35602 | 295 ft | 8 kts | 175° |
| 2026-05-08 18:27 | 48.72192 | 2.35615 | 293 ft | 7 kts | 163° |
| 2026-05-08 18:27 | 48.72124 | 2.35642 | 294 ft | 12 kts | 163° |
| 2026-05-08 18:27 | 48.72044 | 2.35720 | 295 ft | 14 kts | 130° |
| 2026-05-08 18:28 | 48.71991 | 2.35855 | 291 ft | 16 kts | 118° |
| 2026-05-08 18:28 | 48.71966 | 2.35974 | 294 ft | 11 kts | 93° |
| 2026-05-08 18:28 | 48.71978 | 2.36056 | 293 ft | 4 kts | 75° |
| 2026-05-08 18:28 | 48.71993 | 2.36141 | 292 ft | 28 kts | 74° |
| 2026-05-08 18:29 | 48.72116 | 2.36805 | 297 ft | 99 kts | 74° |
| 2026-05-08 18:29 | 48.72355 | 2.38102 | 295 ft | 154 kts | 74° |
| 2026-05-08 18:29 | 48.72657 | 2.39741 | 742 ft | 162 kts | 74° |
| 2026-05-08 18:29 | 48.72961 | 2.41374 | 1507 ft | 161 kts | 74° |
| 2026-05-08 18:30 | 48.73263 | 2.43007 | 2223 ft | 161 kts | 74° |
| 2026-05-08 18:30 | 48.73563 | 2.44643 | 2869 ft | 161 kts | 73° |
| 2026-05-08 18:30 | 48.73862 | 2.46269 | 3503 ft | 160 kts | 73° |
| 2026-05-08 18:30 | 48.74081 | 2.48006 | 3878 ft | 179 kts | 84° |
| 2026-05-08 18:31 | 48.74169 | 2.50000 | 4170 ft | 201 kts | 86° |
| 2026-05-08 18:31 | 48.74238 | 2.52224 | 4503 ft | 220 kts | 87° |
| 2026-05-08 18:31 | 48.74310 | 2.54640 | 4927 ft | 237 kts | 87° |
| 2026-05-08 18:31 | 48.74079 | 2.57128 | 5608 ft | 244 kts | 116° |
| 2026-05-08 18:32 | 48.72912 | 2.58979 | 6306 ft | 250 kts | 152° |
| 2026-05-08 18:32 | 48.71278 | 2.59936 | 7061 ft | 253 kts | 162° |
| 2026-05-08 18:32 | 48.69567 | 2.60651 | 7840 ft | 256 kts | 165° |
| 2026-05-08 18:32 | 48.67833 | 2.61317 | 8596 ft | 259 kts | 166° |
| 2026-05-08 18:33 | 48.66014 | 2.61917 | 9091 ft | 277 kts | 174° |
| 2026-05-08 18:33 | 48.64060 | 2.61878 | 9780 ft | 284 kts | 188° |
| 2026-05-08 18:33 | 48.62133 | 2.61149 | 10463 ft | 293 kts | 201° |
| 2026-05-08 18:33 | 48.60248 | 2.59787 | 10733 ft | 316 kts | 208° |
| 2026-05-08 18:34 | 48.58221 | 2.58211 | 10939 ft | 339 kts | 208° |
| 2026-05-08 18:34 | 48.56074 | 2.56537 | 11398 ft | 352 kts | 208° |
| 2026-05-08 18:34 | 48.53883 | 2.54833 | 12097 ft | 356 kts | 208° |
| 2026-05-08 18:34 | 48.51664 | 2.53115 | 12746 ft | 359 kts | 208° |
| 2026-05-08 18:35 | 48.49431 | 2.51392 | 12989 ft | 360 kts | 208° |
| 2026-05-08 18:35 | 48.47189 | 2.49670 | 13632 ft | 363 kts | 208° |
| 2026-05-08 18:35 | 48.44837 | 2.48230 | 14323 ft | 367 kts | 199° |
| 2026-05-08 18:35 | 48.42379 | 2.47113 | 14996 ft | 371 kts | 198° |
| 2026-05-08 18:36 | 48.39899 | 2.45989 | 15644 ft | 374 kts | 198° |
| 2026-05-08 18:36 | 48.38242 | 2.45238 | 16062 ft | 376 kts | 198° |
| 2026-05-08 18:36 | 48.34871 | 2.43716 | 16862 ft | 380 kts | 199° |
| 2026-05-08 18:36 | 48.32321 | 2.42598 | 17452 ft | 384 kts | 195° |
| 2026-05-08 18:37 | 48.29674 | 2.42018 | 18033 ft | 391 kts | 185° |
| 2026-05-08 18:37 | 48.26917 | 2.42217 | 18601 ft | 398 kts | 174° |
| 2026-05-08 18:37 | 48.24210 | 2.43233 | 19124 ft | 406 kts | 163° |
| 2026-05-08 18:37 | 48.21532 | 2.44676 | 19633 ft | 410 kts | 162° |
| 2026-05-08 18:38 | 48.18822 | 2.46123 | 20119 ft | 415 kts | 163° |
| 2026-05-08 18:38 | 48.16118 | 2.47557 | 20590 ft | 419 kts | 163° |
| 2026-05-08 18:38 | 48.13318 | 2.49033 | 21037 ft | 423 kts | 163° |
| 2026-05-08 18:38 | 48.10565 | 2.50485 | 21460 ft | 427 kts | 162° |
| 2026-05-08 18:39 | 48.07743 | 2.51973 | 21879 ft | 431 kts | 162° |
| 2026-05-08 18:39 | 48.04893 | 2.53434 | 22287 ft | 435 kts | 163° |
| 2026-05-08 18:39 | 48.01998 | 2.54868 | 22690 ft | 440 kts | 164° |
| 2026-05-08 18:39 | 47.99074 | 2.56290 | 23070 ft | 443 kts | 164° |
| 2026-05-08 18:40 | 47.96128 | 2.57714 | 23461 ft | 446 kts | 164° |
| 2026-05-08 18:40 | 47.94171 | 2.58659 | 23702 ft | 448 kts | 164° |
| 2026-05-08 18:40 | 47.91194 | 2.60099 | 24051 ft | 451 kts | 164° |
| 2026-05-08 18:40 | 47.88197 | 2.61560 | 24393 ft | 455 kts | 163° |
| 2026-05-08 18:41 | 47.85185 | 2.63037 | 24748 ft | 457 kts | 163° |
| 2026-05-08 18:41 | 47.82152 | 2.64526 | 25110 ft | 459 kts | 163° |
| 2026-05-08 18:41 | 47.79116 | 2.66017 | 25451 ft | 461 kts | 163° |
| 2026-05-08 18:41 | 47.76055 | 2.67514 | 25781 ft | 463 kts | 163° |
| 2026-05-08 18:42 | 47.72986 | 2.69013 | 26106 ft | 465 kts | 163° |
| 2026-05-08 18:42 | 47.69904 | 2.70515 | 26409 ft | 467 kts | 164° |
| 2026-05-08 18:42 | 47.66809 | 2.72020 | 26723 ft | 469 kts | 164° |
| 2026-05-08 18:42 | 47.63701 | 2.73530 | 27016 ft | 470 kts | 164° |
| 2026-05-08 18:43 | 47.60589 | 2.75044 | 27298 ft | 472 kts | 164° |
| 2026-05-08 18:43 | 47.57454 | 2.76572 | 27564 ft | 474 kts | 164° |
| 2026-05-08 18:43 | 47.54313 | 2.78102 | 27835 ft | 476 kts | 164° |
| 2026-05-08 18:43 | 47.51165 | 2.79627 | 28089 ft | 477 kts | 164° |
| 2026-05-08 18:44 | 47.47999 | 2.81150 | 28322 ft | 479 kts | 164° |
| 2026-05-08 18:44 | 47.44817 | 2.82679 | 28549 ft | 480 kts | 164° |
| 2026-05-08 18:44 | 47.41683 | 2.84189 | 28812 ft | 480 kts | 164° |
| 2026-05-08 18:44 | 47.38514 | 2.85711 | 29113 ft | 479 kts | 164° |
| 2026-05-08 18:45 | 47.35344 | 2.87233 | 29415 ft | 478 kts | 164° |
| 2026-05-08 18:45 | 47.32181 | 2.88747 | 29717 ft | 477 kts | 164° |
| 2026-05-08 18:45 | 47.29027 | 2.90255 | 30033 ft | 476 kts | 164° |
| 2026-05-08 18:45 | 47.25872 | 2.91764 | 30335 ft | 475 kts | 164° |
| 2026-05-08 18:46 | 47.22738 | 2.93262 | 30642 ft | 474 kts | 164° |
| 2026-05-08 18:46 | 47.19602 | 2.94760 | 30939 ft | 473 kts | 164° |
| 2026-05-08 18:46 | 47.16472 | 2.96256 | 31246 ft | 472 kts | 165° |
| 2026-05-08 18:46 | 47.13352 | 2.97745 | 31548 ft | 470 kts | 165° |
| 2026-05-08 18:47 | 47.10247 | 2.99205 | 31859 ft | 468 kts | 166° |
| 2026-05-08 18:47 | 47.07132 | 3.00569 | 32159 ft | 467 kts | 167° |
| 2026-05-08 18:47 | 47.04003 | 3.01847 | 32455 ft | 465 kts | 168° |
| 2026-05-08 18:47 | 47.00886 | 3.03077 | 32752 ft | 463 kts | 168° |
| 2026-05-08 18:48 | 46.97780 | 3.04295 | 33048 ft | 462 kts | 168° |
| 2026-05-08 18:48 | 46.94679 | 3.05525 | 33342 ft | 460 kts | 168° |
| 2026-05-08 18:48 | 46.91636 | 3.06756 | 33634 ft | 459 kts | 168° |
| 2026-05-08 18:48 | 46.88527 | 3.08030 | 33930 ft | 457 kts | 168° |
| 2026-05-08 18:49 | 46.85498 | 3.09280 | 34219 ft | 456 kts | 168° |
| 2026-05-08 18:49 | 46.82449 | 3.10539 | 34498 ft | 455 kts | 168° |
| 2026-05-08 18:49 | 46.79409 | 3.11790 | 34765 ft | 454 kts | 168° |
| 2026-05-08 18:49 | 46.76366 | 3.13038 | 35024 ft | 453 kts | 168° |
| 2026-05-08 18:50 | 46.73326 | 3.14277 | 35272 ft | 453 kts | 168° |
| 2026-05-08 18:50 | 46.70294 | 3.15511 | 35496 ft | 452 kts | 168° |
| 2026-05-08 18:50 | 46.67267 | 3.16743 | 35716 ft | 452 kts | 168° |
| 2026-05-08 18:50 | 46.64245 | 3.17971 | 35932 ft | 451 kts | 168° |
| 2026-05-08 18:51 | 46.61220 | 3.19193 | 36134 ft | 450 kts | 168° |
| 2026-05-08 18:51 | 46.58204 | 3.20410 | 36331 ft | 450 kts | 168° |
| 2026-05-08 18:51 | 46.55187 | 3.21627 | 36500 ft | 450 kts | 168° |
| 2026-05-08 18:51 | 46.52163 | 3.22844 | 36680 ft | 450 kts | 168° |
| 2026-05-08 18:52 | 46.49148 | 3.24053 | 36874 ft | 449 kts | 168° |
| 2026-05-08 18:52 | 46.46140 | 3.25260 | 36970 ft | 447 kts | 168° |
| 2026-05-08 18:52 | 46.40174 | 3.27669 | 36980 ft | 443 kts | 168° |
| 2026-05-08 18:53 | 46.34238 | 3.30066 | 36980 ft | 442 kts | 168° |
| 2026-05-08 18:53 | 46.28346 | 3.32439 | 36979 ft | 442 kts | 168° |
| 2026-05-08 18:54 | 46.22420 | 3.34805 | 36979 ft | 442 kts | 168° |
| 2026-05-08 18:54 | 46.16496 | 3.37156 | 36978 ft | 441 kts | 168° |
| 2026-05-08 18:55 | 46.07595 | 3.40681 | 36973 ft | 442 kts | 168° |
| 2026-05-08 18:56 | 46.01671 | 3.43039 | 36977 ft | 442 kts | 168° |
| 2026-05-08 18:56 | 45.95734 | 3.45391 | 36984 ft | 441 kts | 168° |
| 2026-05-08 18:57 | 45.89857 | 3.47718 | 36999 ft | 441 kts | 168° |
| 2026-05-08 18:57 | 45.84181 | 3.51138 | 37001 ft | 447 kts | 151° |
| 2026-05-08 18:58 | 45.78971 | 3.56034 | 37002 ft | 447 kts | 150° |
| 2026-05-08 18:58 | 45.73768 | 3.60946 | 37002 ft | 447 kts | 150° |
| 2026-05-08 18:59 | 45.68564 | 3.65835 | 37003 ft | 448 kts | 150° |
| 2026-05-08 18:59 | 45.63356 | 3.70717 | 36998 ft | 448 kts | 150° |
| 2026-05-08 19:00 | 45.58136 | 3.75592 | 37004 ft | 447 kts | 150° |
| 2026-05-08 19:00 | 45.52927 | 3.80450 | 37009 ft | 447 kts | 150° |
| 2026-05-08 19:01 | 45.47717 | 3.85308 | 37006 ft | 447 kts | 150° |
| 2026-05-08 19:01 | 45.42507 | 3.90157 | 37006 ft | 446 kts | 150° |
| 2026-05-08 19:02 | 45.37391 | 3.95177 | 37011 ft | 449 kts | 142° |
| 2026-05-08 19:02 | 45.33277 | 4.01834 | 37009 ft | 454 kts | 128° |
| 2026-05-08 19:03 | 45.29571 | 4.09135 | 37002 ft | 456 kts | 129° |
| 2026-05-08 19:03 | 45.25834 | 4.16441 | 37001 ft | 457 kts | 129° |
| 2026-05-08 19:04 | 45.22086 | 4.23740 | 37004 ft | 458 kts | 129° |
| 2026-05-08 19:04 | 45.18333 | 4.31041 | 37008 ft | 458 kts | 129° |
| 2026-05-08 19:05 | 45.14596 | 4.38285 | 37014 ft | 458 kts | 129° |
| 2026-05-08 19:05 | 45.10815 | 4.45561 | 37019 ft | 458 kts | 131° |
| 2026-05-08 19:06 | 45.06754 | 4.52474 | 37024 ft | 456 kts | 135° |
| 2026-05-08 19:06 | 45.02516 | 4.59142 | 37019 ft | 455 kts | 135° |
| 2026-05-08 19:07 | 44.98303 | 4.65839 | 37014 ft | 455 kts | 134° |
| 2026-05-08 19:07 | 44.94146 | 4.72591 | 37014 ft | 456 kts | 134° |
| 2026-05-08 19:08 | 44.90005 | 4.79370 | 37013 ft | 456 kts | 134° |
| 2026-05-08 19:08 | 44.85872 | 4.86087 | 37011 ft | 456 kts | 134° |
| 2026-05-08 19:09 | 44.81694 | 4.92808 | 37006 ft | 455 kts | 134° |
| 2026-05-08 19:09 | 44.77515 | 4.99514 | 36998 ft | 456 kts | 134° |
| 2026-05-08 19:10 | 44.73337 | 5.06234 | 37000 ft | 456 kts | 134° |
| 2026-05-08 19:10 | 44.69149 | 5.12937 | 37001 ft | 456 kts | 135° |
| 2026-05-08 19:11 | 44.64963 | 5.19624 | 37000 ft | 456 kts | 135° |
| 2026-05-08 19:11 | 44.60768 | 5.26321 | 37001 ft | 456 kts | 135° |
| 2026-05-08 19:12 | 44.56565 | 5.32999 | 37007 ft | 457 kts | 135° |
| 2026-05-08 19:12 | 44.52356 | 5.39672 | 37011 ft | 456 kts | 135° |
| 2026-05-08 19:13 | 44.48175 | 5.46286 | 37015 ft | 456 kts | 135° |
| 2026-05-08 19:13 | 44.43962 | 5.52944 | 37021 ft | 456 kts | 135° |
| 2026-05-08 19:14 | 44.39747 | 5.59599 | 37031 ft | 457 kts | 135° |
| 2026-05-08 19:14 | 44.35898 | 5.66692 | 37044 ft | 460 kts | 127° |
| 2026-05-08 19:15 | 44.32312 | 5.74101 | 37045 ft | 460 kts | 127° |
| 2026-05-08 19:15 | 44.28716 | 5.81501 | 37045 ft | 460 kts | 127° |
| 2026-05-08 19:16 | 44.25113 | 5.88883 | 37051 ft | 460 kts | 127° |
| 2026-05-08 19:16 | 44.21529 | 5.96215 | 37052 ft | 460 kts | 127° |
| 2026-05-08 19:17 | 44.17923 | 6.03570 | 37057 ft | 460 kts | 127° |
| 2026-05-08 19:17 | 44.14309 | 6.10916 | 37061 ft | 459 kts | 128° |
| 2026-05-08 19:18 | 44.10695 | 6.18261 | 37064 ft | 459 kts | 128° |
| 2026-05-08 19:18 | 44.07079 | 6.25589 | 37064 ft | 459 kts | 128° |
| 2026-05-08 19:19 | 44.03458 | 6.32918 | 37064 ft | 460 kts | 128° |
| 2026-05-08 19:19 | 43.99829 | 6.40234 | 37066 ft | 460 kts | 128° |
| 2026-05-08 19:20 | 43.96190 | 6.47555 | 37072 ft | 460 kts | 128° |
| 2026-05-08 19:20 | 43.92558 | 6.54858 | 37071 ft | 460 kts | 128° |
| 2026-05-08 19:21 | 43.89522 | 6.60919 | 37071 ft | 460 kts | 128° |
| 2026-05-08 19:21 | 43.85861 | 6.68206 | 37065 ft | 460 kts | 128° |
| 2026-05-08 19:22 | 43.81603 | 6.76685 | 37063 ft | 462 kts | 128° |
| 2026-05-08 19:22 | 43.78546 | 6.82765 | 37063 ft | 462 kts | 128° |
| 2026-05-08 19:23 | 43.74860 | 6.90073 | 37059 ft | 463 kts | 128° |
| 2026-05-08 19:23 | 43.70725 | 6.96773 | 37056 ft | 455 kts | 143° |
| 2026-05-08 19:24 | 43.65729 | 7.02076 | 37051 ft | 453 kts | 147° |
| 2026-05-08 19:24 | 43.60693 | 7.07325 | 37048 ft | 454 kts | 147° |
| 2026-05-08 19:25 | 43.55652 | 7.12588 | 37051 ft | 454 kts | 147° |
| 2026-05-08 19:25 | 43.51402 | 7.17007 | 37046 ft | 454 kts | 147° |
| 2026-05-08 19:26 | 43.46345 | 7.22235 | 37045 ft | 454 kts | 148° |
| 2026-05-08 19:26 | 43.41287 | 7.27471 | 37047 ft | 455 kts | 148° |
| 2026-05-08 19:27 | 43.36254 | 7.32668 | 37046 ft | 455 kts | 148° |
| 2026-05-08 19:27 | 43.32511 | 7.36518 | 37050 ft | 455 kts | 148° |
| 2026-05-08 19:28 | 43.27547 | 7.41623 | 37053 ft | 455 kts | 148° |
| 2026-05-08 19:28 | 43.22653 | 7.46648 | 37055 ft | 455 kts | 148° |
| 2026-05-08 19:29 | 43.17572 | 7.51847 | 37054 ft | 455 kts | 148° |
| 2026-05-08 19:29 | 43.12570 | 7.56948 | 37059 ft | 454 kts | 149° |
| 2026-05-08 19:30 | 43.07804 | 7.60456 | 37055 ft | 444 kts | 165° |
| 2026-05-08 19:30 | 43.01992 | 7.63334 | 37057 ft | 444 kts | 165° |
| 2026-05-08 19:31 | 42.96181 | 7.66216 | 37058 ft | 444 kts | 165° |
| 2026-05-08 19:31 | 42.90369 | 7.69101 | 37060 ft | 445 kts | 165° |
| 2026-05-08 19:31 | 42.87458 | 7.70542 | 36763 ft | 447 kts | 165° |
| 2026-05-08 19:32 | 42.84514 | 7.71995 | 35830 ft | 451 kts | 165° |
| 2026-05-08 19:32 | 42.81563 | 7.73448 | 35025 ft | 451 kts | 165° |
| 2026-05-08 19:32 | 42.78603 | 7.74907 | 34146 ft | 452 kts | 164° |
| 2026-05-08 19:32 | 42.75635 | 7.76367 | 33226 ft | 455 kts | 164° |
| 2026-05-08 19:33 | 42.72648 | 7.77838 | 32249 ft | 457 kts | 164° |
| 2026-05-08 19:33 | 42.69643 | 7.79318 | 31217 ft | 460 kts | 164° |
| 2026-05-08 19:33 | 42.66622 | 7.80804 | 30165 ft | 463 kts | 163° |
| 2026-05-08 19:33 | 42.63623 | 7.82276 | 29062 ft | 466 kts | 164° |
| 2026-05-08 19:34 | 42.60532 | 7.83789 | 27808 ft | 464 kts | 164° |
| 2026-05-08 19:34 | 42.57560 | 7.85254 | 26617 ft | 456 kts | 164° |
| 2026-05-08 19:34 | 42.54589 | 7.86720 | 25611 ft | 453 kts | 164° |
| 2026-05-08 19:34 | 42.51632 | 7.88169 | 24809 ft | 451 kts | 165° |
| 2026-05-08 19:35 | 42.48687 | 7.89603 | 23969 ft | 450 kts | 165° |
| 2026-05-08 19:35 | 42.45738 | 7.91037 | 23141 ft | 448 kts | 165° |
| 2026-05-08 19:35 | 42.42809 | 7.92464 | 22355 ft | 446 kts | 164° |
| 2026-05-08 19:35 | 42.39895 | 7.93882 | 21591 ft | 443 kts | 164° |
| 2026-05-08 19:36 | 42.36998 | 7.95293 | 20843 ft | 440 kts | 164° |
| 2026-05-08 19:36 | 42.34134 | 7.96709 | 20108 ft | 438 kts | 161° |
| 2026-05-08 19:36 | 42.31407 | 7.98555 | 19417 ft | 438 kts | 152° |
| 2026-05-08 19:36 | 42.28950 | 8.00966 | 18728 ft | 437 kts | 141° |
| 2026-05-08 19:37 | 42.26700 | 8.03719 | 18057 ft | 434 kts | 140° |
| 2026-05-08 19:37 | 42.24475 | 8.06452 | 17427 ft | 429 kts | 140° |
| 2026-05-08 19:37 | 42.22280 | 8.09143 | 16821 ft | 424 kts | 140° |
| 2026-05-08 19:37 | 42.20112 | 8.11796 | 16234 ft | 419 kts | 140° |
| 2026-05-08 19:38 | 42.17969 | 8.14411 | 15663 ft | 414 kts | 140° |
| 2026-05-08 19:38 | 42.15845 | 8.17005 | 15099 ft | 409 kts | 140° |
| 2026-05-08 19:38 | 42.13776 | 8.19535 | 14540 ft | 405 kts | 140° |
| 2026-05-08 19:38 | 42.11700 | 8.22068 | 13961 ft | 400 kts | 140° |
| 2026-05-08 19:39 | 42.09645 | 8.24568 | 13371 ft | 396 kts | 140° |
| 2026-05-08 19:39 | 42.07616 | 8.27037 | 12744 ft | 392 kts | 139° |
| 2026-05-08 19:39 | 42.05598 | 8.29491 | 12120 ft | 387 kts | 140° |
| 2026-05-08 19:39 | 42.03605 | 8.31909 | 11454 ft | 384 kts | 139° |
| 2026-05-08 19:40 | 42.01650 | 8.34281 | 11015 ft | 366 kts | 139° |
| 2026-05-08 19:40 | 41.99837 | 8.36480 | 10855 ft | 336 kts | 139° |
| 2026-05-08 19:40 | 41.98166 | 8.38507 | 10697 ft | 311 kts | 139° |
| 2026-05-08 19:40 | 41.96494 | 8.40255 | 10383 ft | 300 kts | 150° |
| 2026-05-08 19:41 | 41.94667 | 8.41445 | 10126 ft | 293 kts | 161° |
| 2026-05-08 19:41 | 41.92705 | 8.42105 | 9937 ft | 289 kts | 173° |
| 2026-05-08 19:41 | 41.90701 | 8.42220 | 9814 ft | 288 kts | 184° |
| 2026-05-08 19:41 | 41.88699 | 8.42065 | 9687 ft | 288 kts | 184° |
| 2026-05-08 19:42 | 41.86702 | 8.41913 | 9560 ft | 287 kts | 184° |
| 2026-05-08 19:42 | 41.84711 | 8.41765 | 9436 ft | 287 kts | 184° |
| 2026-05-08 19:42 | 41.82718 | 8.41618 | 9279 ft | 287 kts | 183° |
| 2026-05-08 19:42 | 41.80716 | 8.41470 | 8812 ft | 289 kts | 183° |
| 2026-05-08 19:43 | 41.78710 | 8.41321 | 8410 ft | 287 kts | 183° |
| 2026-05-08 19:43 | 41.76713 | 8.41174 | 7923 ft | 288 kts | 183° |
| 2026-05-08 19:43 | 41.74730 | 8.41026 | 7572 ft | 284 kts | 183° |
| 2026-05-08 19:43 | 41.72761 | 8.40878 | 7131 ft | 283 kts | 183° |
| 2026-05-08 19:44 | 41.70795 | 8.40729 | 6705 ft | 282 kts | 183° |
| 2026-05-08 19:44 | 41.68841 | 8.40581 | 6275 ft | 281 kts | 183° |
| 2026-05-08 19:44 | 41.66905 | 8.40680 | 5865 ft | 278 kts | 167° |
| 2026-05-08 19:44 | 41.65151 | 8.41643 | 5418 ft | 277 kts | 146° |
| 2026-05-08 19:45 | 41.63762 | 8.43394 | 4977 ft | 276 kts | 125° |
| 2026-05-08 19:45 | 41.62883 | 8.45654 | 4526 ft | 274 kts | 107° |
| 2026-05-08 19:45 | 41.62596 | 8.48160 | 3941 ft | 277 kts | 86° |
| 2026-05-08 19:45 | 41.63056 | 8.50639 | 3461 ft | 270 kts | 62° |
| 2026-05-08 19:46 | 41.64021 | 8.52639 | 3297 ft | 245 kts | 54° |
| 2026-05-08 19:46 | 41.64974 | 8.54460 | 3182 ft | 232 kts | 54° |
| 2026-05-08 19:46 | 41.66734 | 8.57837 | 3028 ft | 214 kts | 54° |
| 2026-05-08 19:47 | 41.67566 | 8.59429 | 3009 ft | 202 kts | 54° |
| 2026-05-08 19:47 | 41.68355 | 8.60939 | 3011 ft | 194 kts | 54° |
| 2026-05-08 19:47 | 41.69093 | 8.62354 | 3030 ft | 176 kts | 53° |
| 2026-05-08 19:47 | 41.69763 | 8.63639 | 2998 ft | 160 kts | 53° |
| 2026-05-08 19:48 | 41.70374 | 8.64808 | 3005 ft | 146 kts | 53° |
| 2026-05-08 19:48 | 41.70949 | 8.65909 | 3011 ft | 142 kts | 53° |
| 2026-05-08 19:48 | 41.71556 | 8.66933 | 3007 ft | 139 kts | 42° |
| 2026-05-08 19:48 | 41.72363 | 8.67635 | 3007 ft | 138 kts | 28° |
| 2026-05-08 19:49 | 41.73210 | 8.68247 | 3007 ft | 138 kts | 26° |
| 2026-05-08 19:49 | 41.74067 | 8.68820 | 3005 ft | 138 kts | 25° |
| 2026-05-08 19:49 | 41.74932 | 8.69378 | 3008 ft | 138 kts | 25° |
| 2026-05-08 19:49 | 41.75790 | 8.69919 | 3006 ft | 138 kts | 24° |
| 2026-05-08 19:50 | 41.76661 | 8.70464 | 3001 ft | 138 kts | 24° |
| 2026-05-08 19:50 | 41.77534 | 8.71007 | 2905 ft | 138 kts | 24° |
| 2026-05-08 19:50 | 41.78405 | 8.71548 | 2759 ft | 138 kts | 24° |
| 2026-05-08 19:50 | 41.79278 | 8.72091 | 2586 ft | 139 kts | 24° |
| 2026-05-08 19:51 | 41.80154 | 8.72635 | 2414 ft | 138 kts | 24° |
| 2026-05-08 19:51 | 41.81029 | 8.73178 | 2232 ft | 138 kts | 24° |
| 2026-05-08 19:51 | 41.81905 | 8.73721 | 2049 ft | 139 kts | 24° |
| 2026-05-08 19:51 | 41.82782 | 8.74266 | 1863 ft | 139 kts | 24° |
| 2026-05-08 19:52 | 41.83659 | 8.74809 | 1680 ft | 139 kts | 24° |
| 2026-05-08 19:52 | 41.84538 | 8.75351 | 1483 ft | 139 kts | 24° |
| 2026-05-08 19:52 | 41.85417 | 8.75887 | 1300 ft | 139 kts | 25° |
| 2026-05-08 19:52 | 41.86292 | 8.76436 | 1107 ft | 139 kts | 25° |
| 2026-05-08 19:53 | 41.87166 | 8.76987 | 937 ft | 138 kts | 25° |
| 2026-05-08 19:53 | 41.88041 | 8.77528 | 751 ft | 138 kts | 25° |
| 2026-05-08 19:53 | 41.88912 | 8.78070 | 573 ft | 138 kts | 24° |
| 2026-05-08 19:53 | 41.89782 | 8.78613 | 384 ft | 138 kts | 25° |
| 2026-05-08 19:54 | 41.90645 | 8.79156 | 200 ft | 137 kts | 25° |
| 2026-05-08 19:54 | 41.91493 | 8.79686 | 20 ft | 131 kts | 25° |
| 2026-05-08 19:54 | 41.92122 | 8.80080 | 20 ft | 58 kts | 25° |
| 2026-05-08 19:54 | 41.92294 | 8.80187 | 20 ft | 5 kts | 25° |
| 2026-05-08 19:55 | 41.92348 | 8.80221 | 22 ft | 12 kts | 25° |
| 2026-05-08 19:55 | 41.92392 | 8.80189 | 22 ft | 8 kts | 275° |
| 2026-05-08 19:55 | 41.92396 | 8.80110 | 23 ft | 14 kts | 274° |
| 2026-05-08 19:55 | 41.92404 | 8.79985 | 29 ft | 10 kts | 275° |
| 2026-05-08 19:56 | 41.92387 | 8.79912 | 30 ft | 8 kts | 216° |
| 2026-05-08 19:56 | 41.92341 | 8.79883 | 26 ft | 7 kts | 204° |
| 2026-05-08 19:56 | 41.92300 | 8.79858 | 27 ft | 6 kts | 205° |
| 2026-05-08 19:56 | 41.92238 | 8.79819 | 28 ft | 14 kts | 204° |
| 2026-05-08 19:57 | 41.92165 | 8.79774 | 26 ft | 9 kts | 205° |
| 2026-05-08 19:57 | 41.92111 | 8.79740 | 28 ft | 8 kts | 205° |
| 2026-05-08 19:57 | 41.92064 | 8.79711 | 30 ft | 7 kts | 205° |
| 2026-05-08 19:57 | 41.92024 | 8.79686 | 26 ft | 6 kts | 204° |
| 2026-05-08 19:58 | 41.91989 | 8.79664 | 26 ft | 5 kts | 205° |
| 2026-05-08 19:58 | 41.91957 | 8.79645 | 29 ft | 6 kts | 204° |
| 2026-05-08 19:58 | 41.91932 | 8.79618 | 30 ft | 3 kts | 264° |
| 2026-05-08 19:58 | 41.91938 | 8.79593 | 26 ft | 2 kts | 305° |
| 2026-05-08 19:59 | 41.91948 | 8.79583 | 26 ft | 2 kts | 328° |
| 2026-05-08 19:59 | 41.91954 | 8.79579 | 26 ft | 0 kts | 335° |